Terminal Aerodrome Forecast
Issued by NWS

Home | Current Version | Previous Version | Text Only | Print | Product List | Glossary On
Versions: 1 2 3 4 5 6 7 8 9 10 11 12 13 14 15 16 17 18 19 20 21
000
FTUS45 KLKN 231729
TAFELY
TAF
KELY 231729Z 2318/2418 01008KT P6SM OVC020
     FM231900 36010KT P6SM VCTS BKN050CB
      TEMPO 2320/2324 3SM -SHRASN BR FEW010 BKN020 OVC040
     FM240200 35006KT P6SM OVC050
     FM240500 34006KT P6SM VCFG OVC020
     FM241100 18009KT P6SM SCT035 BKN130=

USA.gov is the U.S. government's official web portal to all federal, state and local government web resources and services.